sensor_id;sensor_type;location;lat;lon;timestamp;P1;durP1;ratioP1;P2;durP2;ratioP2
6372;SDS011;3219;51.362;7.074;2022-12-07T00:02:03;49.13;;;43.83;;
6372;SDS011;3219;51.362;7.074;2022-12-07T00:04:31;49.75;;;44.33;;
6372;SDS011;3219;51.362;7.074;2022-12-07T00:07:00;50.85;;;44.20;;
6372;SDS011;3219;51.362;7.074;2022-12-07T00:09:29;48.58;;;42.63;;
6372;SDS011;3219;51.362;7.074;2022-12-07T00:11:57;53.08;;;45.88;;
6372;SDS011;3219;51.362;7.074;2022-12-07T00:14:25;50.92;;;45.53;;
6372;SDS011;3219;51.362;7.074;2022-12-07T00:16:53;53.03;;;46.15;;
6372;SDS011;3219;51.362;7.074;2022-12-07T00:19:20;53.65;;;45.42;;
6372;SDS011;3219;51.362;7.074;2022-12-07T00:21:48;52.03;;;45.95;;
6372;SDS011;3219;51.362;7.074;2022-12-07T00:24:18;51.85;;;46.22;;
6372;SDS011;3219;51.362;7.074;2022-12-07T00:26:46;49.50;;;44.28;;
6372;SDS011;3219;51.362;7.074;2022-12-07T00:29:15;51.25;;;45.08;;
6372;SDS011;3219;51.362;7.074;2022-12-07T00:31:43;49.83;;;44.58;;
6372;SDS011;3219;51.362;7.074;2022-12-07T00:34:12;52.80;;;46.22;;
6372;SDS011;3219;51.362;7.074;2022-12-07T00:36:40;51.35;;;45.20;;
6372;SDS011;3219;51.362;7.074;2022-12-07T00:39:08;50.85;;;45.28;;
6372;SDS011;3219;51.362;7.074;2022-12-07T00:41:37;51.10;;;42.80;;
6372;SDS011;3219;51.362;7.074;2022-12-07T00:44:05;50.35;;;44.88;;
6372;SDS011;3219;51.362;7.074;2022-12-07T00:46:33;48.67;;;43.38;;
6372;SDS011;3219;51.362;7.074;2022-12-07T00:49:01;49.03;;;43.80;;
6372;SDS011;3219;51.362;7.074;2022-12-07T00:51:29;46.22;;;41.28;;
6372;SDS011;3219;51.362;7.074;2022-12-07T00:53:57;49.35;;;43.15;;
6372;SDS011;3219;51.362;7.074;2022-12-07T00:56:26;47.13;;;41.90;;
6372;SDS011;3219;51.362;7.074;2022-12-07T00:58:56;46.95;;;42.00;;
6372;SDS011;3219;51.362;7.074;2022-12-07T01:01:25;46.28;;;40.95;;
6372;SDS011;3219;51.362;7.074;2022-12-07T01:03:53;45.58;;;40.08;;
6372;SDS011;3219;51.362;7.074;2022-12-07T01:06:25;43.50;;;38.75;;
6372;SDS011;3219;51.362;7.074;2022-12-07T01:08:53;46.67;;;41.65;;
6372;SDS011;3219;51.362;7.074;2022-12-07T01:11:22;45.60;;;40.67;;
6372;SDS011;3219;51.362;7.074;2022-12-07T01:13:50;43.80;;;39.08;;
6372;SDS011;3219;51.362;7.074;2022-12-07T01:16:20;46.47;;;41.53;;
6372;SDS011;3219;51.362;7.074;2022-12-07T01:18:50;41.97;;;37.42;;
6372;SDS011;3219;51.362;7.074;2022-12-07T01:21:19;42.72;;;38.13;;
6372;SDS011;3219;51.362;7.074;2022-12-07T01:23:47;42.47;;;38.05;;
6372;SDS011;3219;51.362;7.074;2022-12-07T01:26:16;43.17;;;38.58;;
6372;SDS011;3219;51.362;7.074;2022-12-07T01:28:45;46.20;;;39.05;;
6372;SDS011;3219;51.362;7.074;2022-12-07T01:31:14;43.22;;;38.63;;
6372;SDS011;3219;51.362;7.074;2022-12-07T01:33:44;42.08;;;37.75;;
6372;SDS011;3219;51.362;7.074;2022-12-07T01:36:13;44.10;;;39.40;;
6372;SDS011;3219;51.362;7.074;2022-12-07T01:38:41;40.83;;;36.17;;
6372;SDS011;3219;51.362;7.074;2022-12-07T01:41:09;42.20;;;36.17;;
6372;SDS011;3219;51.362;7.074;2022-12-07T01:44:06;39.75;;;35.50;;
6372;SDS011;3219;51.362;7.074;2022-12-07T01:46:31;41.08;;;36.58;;
6372;SDS011;3219;51.362;7.074;2022-12-07T01:48:59;49.33;;;42.17;;
6372;SDS011;3219;51.362;7.074;2022-12-07T01:51:27;44.38;;;38.47;;
6372;SDS011;3219;51.362;7.074;2022-12-07T01:53:55;44.03;;;39.25;;
6372;SDS011;3219;51.362;7.074;2022-12-07T01:56:24;43.03;;;37.22;;
6372;SDS011;3219;51.362;7.074;2022-12-07T01:58:53;47.03;;;39.40;;
6372;SDS011;3219;51.362;7.074;2022-12-07T02:01:23;43.55;;;38.80;;
6372;SDS011;3219;51.362;7.074;2022-12-07T02:03:52;40.90;;;36.35;;
6372;SDS011;3219;51.362;7.074;2022-12-07T02:06:21;43.45;;;36.60;;
6372;SDS011;3219;51.362;7.074;2022-12-07T02:08:50;41.05;;;36.55;;
6372;SDS011;3219;51.362;7.074;2022-12-07T02:11:18;42.53;;;34.90;;
6372;SDS011;3219;51.362;7.074;2022-12-07T02:13:46;39.60;;;35.20;;
6372;SDS011;3219;51.362;7.074;2022-12-07T02:16:18;36.70;;;32.83;;
6372;SDS011;3219;51.362;7.074;2022-12-07T02:18:55;43.22;;;37.58;;
6372;SDS011;3219;51.362;7.074;2022-12-07T02:21:26;43.67;;;36.75;;
6372;SDS011;3219;51.362;7.074;2022-12-07T02:24:09;36.58;;;31.73;;
6372;SDS011;3219;51.362;7.074;2022-12-07T02:27:02;44.22;;;37.88;;
6372;SDS011;3219;51.362;7.074;2022-12-07T02:29:37;47.50;;;37.65;;
6372;SDS011;3219;51.362;7.074;2022-12-07T02:32:07;49.20;;;40.25;;
6372;SDS011;3219;51.362;7.074;2022-12-07T02:34:39;44.33;;;37.88;;
6372;SDS011;3219;51.362;7.074;2022-12-07T02:37:10;47.65;;;38.15;;
6372;SDS011;3219;51.362;7.074;2022-12-07T02:39:41;43.17;;;38.17;;
6372;SDS011;3219;51.362;7.074;2022-12-07T02:42:13;39.45;;;35.22;;
6372;SDS011;3219;51.362;7.074;2022-12-07T02:44:43;39.97;;;33.75;;
6372;SDS011;3219;51.362;7.074;2022-12-07T02:47:12;44.30;;;34.38;;
6372;SDS011;3219;51.362;7.074;2022-12-07T02:49:42;45.25;;;35.85;;
6372;SDS011;3219;51.362;7.074;2022-12-07T02:52:10;42.80;;;34.95;;
6372;SDS011;3219;51.362;7.074;2022-12-07T02:54:38;45.63;;;37.97;;
6372;SDS011;3219;51.362;7.074;2022-12-07T02:57:09;47.53;;;39.53;;
6372;SDS011;3219;51.362;7.074;2022-12-07T02:59:45;48.58;;;38.45;;
6372;SDS011;3219;51.362;7.074;2022-12-07T03:02:17;46.88;;;39.90;;
6372;SDS011;3219;51.362;7.074;2022-12-07T03:07:18;49.88;;;40.92;;
6372;SDS011;3219;51.362;7.074;2022-12-07T03:09:50;53.05;;;42.42;;
6372;SDS011;3219;51.362;7.074;2022-12-07T03:12:21;48.65;;;42.33;;
6372;SDS011;3219;51.362;7.074;2022-12-07T03:14:52;46.40;;;40.63;;
6372;SDS011;3219;51.362;7.074;2022-12-07T03:17:23;54.25;;;41.20;;
6372;SDS011;3219;51.362;7.074;2022-12-07T03:19:51;45.88;;;39.40;;
6372;SDS011;3219;51.362;7.074;2022-12-07T03:22:20;48.55;;;40.05;;
6372;SDS011;3219;51.362;7.074;2022-12-07T03:24:50;46.92;;;40.85;;
6372;SDS011;3219;51.362;7.074;2022-12-07T03:27:20;49.40;;;40.55;;
6372;SDS011;3219;51.362;7.074;2022-12-07T03:29:49;45.58;;;40.53;;
6372;SDS011;3219;51.362;7.074;2022-12-07T03:32:23;46.92;;;39.72;;
6372;SDS011;3219;51.362;7.074;2022-12-07T03:34:53;46.33;;;38.90;;
6372;SDS011;3219;51.362;7.074;2022-12-07T03:37:26;48.60;;;39.45;;
6372;SDS011;3219;51.362;7.074;2022-12-07T03:39:57;50.33;;;39.00;;
6372;SDS011;3219;51.362;7.074;2022-12-07T03:42:29;41.83;;;35.95;;
6372;SDS011;3219;51.362;7.074;2022-12-07T03:44:57;45.25;;;38.08;;
6372;SDS011;3219;51.362;7.074;2022-12-07T03:47:28;42.30;;;35.97;;
6372;SDS011;3219;51.362;7.074;2022-12-07T03:49:58;46.05;;;39.10;;
6372;SDS011;3219;51.362;7.074;2022-12-07T03:52:28;46.70;;;38.35;;
6372;SDS011;3219;51.362;7.074;2022-12-07T03:54:59;42.22;;;37.25;;
6372;SDS011;3219;51.362;7.074;2022-12-07T03:57:28;44.90;;;36.58;;
6372;SDS011;3219;51.362;7.074;2022-12-07T03:59:58;47.40;;;38.42;;
6372;SDS011;3219;51.362;7.074;2022-12-07T04:02:27;47.15;;;37.15;;
6372;SDS011;3219;51.362;7.074;2022-12-07T04:04:56;41.30;;;36.30;;
6372;SDS011;3219;51.362;7.074;2022-12-07T04:07:24;45.75;;;36.67;;
6372;SDS011;3219;51.362;7.074;2022-12-07T04:09:52;39.85;;;34.40;;
6372;SDS011;3219;51.362;7.074;2022-12-07T04:12:20;39.33;;;33.15;;
6372;SDS011;3219;51.362;7.074;2022-12-07T04:14:47;38.63;;;32.33;;
6372;SDS011;3219;51.362;7.074;2022-12-07T04:17:16;41.17;;;33.95;;
6372;SDS011;3219;51.362;7.074;2022-12-07T04:19:45;46.80;;;34.55;;
6372;SDS011;3219;51.362;7.074;2022-12-07T04:22:13;39.28;;;32.60;;
6372;SDS011;3219;51.362;7.074;2022-12-07T04:24:41;35.08;;;30.00;;
6372;SDS011;3219;51.362;7.074;2022-12-07T04:27:09;36.55;;;31.58;;
6372;SDS011;3219;51.362;7.074;2022-12-07T04:32:06;43.40;;;32.30;;
6372;SDS011;3219;51.362;7.074;2022-12-07T04:34:34;39.60;;;33.47;;
6372;SDS011;3219;51.362;7.074;2022-12-07T04:37:03;38.65;;;30.85;;
6372;SDS011;3219;51.362;7.074;2022-12-07T04:39:32;38.80;;;33.20;;
6372;SDS011;3219;51.362;7.074;2022-12-07T04:42:00;41.80;;;33.85;;
6372;SDS011;3219;51.362;7.074;2022-12-07T04:44:29;43.88;;;34.60;;
6372;SDS011;3219;51.362;7.074;2022-12-07T04:46:57;40.17;;;31.58;;
6372;SDS011;3219;51.362;7.074;2022-12-07T04:49:25;42.58;;;32.17;;
6372;SDS011;3219;51.362;7.074;2022-12-07T04:51:53;36.17;;;32.13;;
6372;SDS011;3219;51.362;7.074;2022-12-07T04:54:22;41.05;;;33.97;;
6372;SDS011;3219;51.362;7.074;2022-12-07T04:56:50;38.35;;;31.80;;
6372;SDS011;3219;51.362;7.074;2022-12-07T04:59:18;43.75;;;32.85;;
6372;SDS011;3219;51.362;7.074;2022-12-07T05:01:46;36.72;;;32.75;;
6372;SDS011;3219;51.362;7.074;2022-12-07T05:04:14;38.03;;;32.60;;
6372;SDS011;3219;51.362;7.074;2022-12-07T05:06:42;36.22;;;30.67;;
6372;SDS011;3219;51.362;7.074;2022-12-07T05:09:10;44.30;;;34.75;;
6372;SDS011;3219;51.362;7.074;2022-12-07T05:11:40;46.13;;;35.40;;
6372;SDS011;3219;51.362;7.074;2022-12-07T05:14:09;39.65;;;34.22;;
6372;SDS011;3219;51.362;7.074;2022-12-07T05:16:38;40.00;;;33.50;;
6372;SDS011;3219;51.362;7.074;2022-12-07T05:19:06;41.55;;;34.78;;
6372;SDS011;3219;51.362;7.074;2022-12-07T05:21:34;46.25;;;37.67;;
6372;SDS011;3219;51.362;7.074;2022-12-07T05:24:03;43.85;;;36.05;;
6372;SDS011;3219;51.362;7.074;2022-12-07T05:26:31;48.45;;;38.72;;
6372;SDS011;3219;51.362;7.074;2022-12-07T05:29:00;44.88;;;37.20;;
6372;SDS011;3219;51.362;7.074;2022-12-07T05:31:28;46.67;;;35.92;;
6372;SDS011;3219;51.362;7.074;2022-12-07T05:33:56;46.35;;;37.17;;
6372;SDS011;3219;51.362;7.074;2022-12-07T05:36:24;43.00;;;35.35;;
6372;SDS011;3219;51.362;7.074;2022-12-07T05:38:53;52.60;;;39.63;;
6372;SDS011;3219;51.362;7.074;2022-12-07T05:41:21;54.90;;;43.65;;
6372;SDS011;3219;51.362;7.074;2022-12-07T05:44:08;49.30;;;41.17;;
6372;SDS011;3219;51.362;7.074;2022-12-07T05:46:36;47.80;;;39.53;;
6372;SDS011;3219;51.362;7.074;2022-12-07T05:49:04;53.10;;;41.88;;
6372;SDS011;3219;51.362;7.074;2022-12-07T05:51:32;48.72;;;39.42;;
6372;SDS011;3219;51.362;7.074;2022-12-07T05:54:00;41.95;;;35.75;;
6372;SDS011;3219;51.362;7.074;2022-12-07T05:56:28;46.95;;;37.92;;
6372;SDS011;3219;51.362;7.074;2022-12-07T05:58:55;44.10;;;36.35;;
6372;SDS011;3219;51.362;7.074;2022-12-07T06:01:43;44.60;;;34.90;;
6372;SDS011;3219;51.362;7.074;2022-12-07T06:04:11;47.30;;;37.95;;
6372;SDS011;3219;51.362;7.074;2022-12-07T06:06:39;43.38;;;33.83;;
6372;SDS011;3219;51.362;7.074;2022-12-07T06:09:07;43.00;;;33.20;;
6372;SDS011;3219;51.362;7.074;2022-12-07T06:11:34;40.80;;;32.00;;
6372;SDS011;3219;51.362;7.074;2022-12-07T06:14:20;39.80;;;31.98;;
6372;SDS011;3219;51.362;7.074;2022-12-07T06:16:49;39.13;;;32.83;;
6372;SDS011;3219;51.362;7.074;2022-12-07T06:19:17;40.25;;;31.15;;
6372;SDS011;3219;51.362;7.074;2022-12-07T06:21:45;34.40;;;28.08;;
6372;SDS011;3219;51.362;7.074;2022-12-07T06:24:14;37.65;;;27.30;;
6372;SDS011;3219;51.362;7.074;2022-12-07T06:26:42;30.75;;;26.30;;
6372;SDS011;3219;51.362;7.074;2022-12-07T06:29:11;34.03;;;28.30;;
6372;SDS011;3219;51.362;7.074;2022-12-07T06:31:39;35.05;;;26.38;;
6372;SDS011;3219;51.362;7.074;2022-12-07T06:34:10;35.95;;;26.20;;
6372;SDS011;3219;51.362;7.074;2022-12-07T06:36:39;29.48;;;24.08;;
6372;SDS011;3219;51.362;7.074;2022-12-07T06:39:07;26.77;;;23.50;;
6372;SDS011;3219;51.362;7.074;2022-12-07T06:41:35;30.88;;;23.90;;
6372;SDS011;3219;51.362;7.074;2022-12-07T06:44:03;28.60;;;24.42;;
6372;SDS011;3219;51.362;7.074;2022-12-07T06:46:32;32.95;;;26.58;;
6372;SDS011;3219;51.362;7.074;2022-12-07T06:49:00;32.08;;;24.10;;
6372;SDS011;3219;51.362;7.074;2022-12-07T06:51:30;30.70;;;24.40;;
6372;SDS011;3219;51.362;7.074;2022-12-07T06:53:58;26.85;;;23.70;;
6372;SDS011;3219;51.362;7.074;2022-12-07T06:56:26;30.33;;;24.67;;
6372;SDS011;3219;51.362;7.074;2022-12-07T06:58:54;31.35;;;23.83;;
6372;SDS011;3219;51.362;7.074;2022-12-07T07:01:22;34.88;;;23.60;;
6372;SDS011;3219;51.362;7.074;2022-12-07T07:03:50;31.42;;;22.73;;
6372;SDS011;3219;51.362;7.074;2022-12-07T07:06:18;28.02;;;20.95;;
6372;SDS011;3219;51.362;7.074;2022-12-07T07:08:47;30.25;;;19.65;;
6372;SDS011;3219;51.362;7.074;2022-12-07T07:11:15;26.33;;;18.25;;
6372;SDS011;3219;51.362;7.074;2022-12-07T07:13:43;22.42;;;19.17;;
6372;SDS011;3219;51.362;7.074;2022-12-07T07:16:12;31.83;;;21.40;;
6372;SDS011;3219;51.362;7.074;2022-12-07T07:18:40;25.52;;;21.02;;
6372;SDS011;3219;51.362;7.074;2022-12-07T07:21:08;31.10;;;22.70;;
6372;SDS011;3219;51.362;7.074;2022-12-07T07:23:36;28.98;;;23.35;;
6372;SDS011;3219;51.362;7.074;2022-12-07T07:26:05;30.70;;;23.80;;
6372;SDS011;3219;51.362;7.074;2022-12-07T07:28:33;29.65;;;22.20;;
6372;SDS011;3219;51.362;7.074;2022-12-07T07:31:01;25.17;;;20.08;;
6372;SDS011;3219;51.362;7.074;2022-12-07T07:33:29;28.80;;;19.95;;
6372;SDS011;3219;51.362;7.074;2022-12-07T07:35:57;26.75;;;19.65;;
6372;SDS011;3219;51.362;7.074;2022-12-07T07:38:25;21.95;;;19.23;;
6372;SDS011;3219;51.362;7.074;2022-12-07T07:40:53;25.08;;;19.45;;
6372;SDS011;3219;51.362;7.074;2022-12-07T07:43:22;27.60;;;20.30;;
6372;SDS011;3219;51.362;7.074;2022-12-07T07:45:50;29.00;;;21.70;;
6372;SDS011;3219;51.362;7.074;2022-12-07T07:48:18;34.22;;;21.20;;
6372;SDS011;3219;51.362;7.074;2022-12-07T07:50:47;25.80;;;19.95;;
6372;SDS011;3219;51.362;7.074;2022-12-07T07:53:15;26.92;;;18.50;;
6372;SDS011;3219;51.362;7.074;2022-12-07T07:55:49;28.33;;;18.80;;
6372;SDS011;3219;51.362;7.074;2022-12-07T07:58:18;24.85;;;17.40;;
6372;SDS011;3219;51.362;7.074;2022-12-07T08:00:47;20.98;;;15.88;;
6372;SDS011;3219;51.362;7.074;2022-12-07T08:03:15;16.73;;;14.02;;
6372;SDS011;3219;51.362;7.074;2022-12-07T08:05:43;23.05;;;15.20;;
6372;SDS011;3219;51.362;7.074;2022-12-07T08:08:11;22.00;;;14.57;;
6372;SDS011;3219;51.362;7.074;2022-12-07T08:10:39;22.80;;;13.82;;
6372;SDS011;3219;51.362;7.074;2022-12-07T08:13:07;22.73;;;12.30;;
6372;SDS011;3219;51.362;7.074;2022-12-07T08:15:39;17.90;;;12.17;;
6372;SDS011;3219;51.362;7.074;2022-12-07T08:18:08;18.80;;;12.18;;
6372;SDS011;3219;51.362;7.074;2022-12-07T08:20:37;18.60;;;11.45;;
6372;SDS011;3219;51.362;7.074;2022-12-07T08:23:06;20.02;;;11.88;;
6372;SDS011;3219;51.362;7.074;2022-12-07T08:25:35;22.05;;;11.55;;
6372;SDS011;3219;51.362;7.074;2022-12-07T08:28:03;19.40;;;11.98;;
6372;SDS011;3219;51.362;7.074;2022-12-07T08:30:31;20.08;;;11.85;;
6372;SDS011;3219;51.362;7.074;2022-12-07T08:32:59;17.13;;;10.65;;
6372;SDS011;3219;51.362;7.074;2022-12-07T08:35:28;16.10;;;10.45;;
6372;SDS011;3219;51.362;7.074;2022-12-07T08:37:56;16.52;;;10.20;;
6372;SDS011;3219;51.362;7.074;2022-12-07T08:40:24;14.60;;;10.95;;
6372;SDS011;3219;51.362;7.074;2022-12-07T08:42:52;13.75;;;10.68;;
6372;SDS011;3219;51.362;7.074;2022-12-07T08:45:20;18.63;;;11.73;;
6372;SDS011;3219;51.362;7.074;2022-12-07T08:47:49;15.38;;;10.73;;
6372;SDS011;3219;51.362;7.074;2022-12-07T08:50:18;17.13;;;12.60;;
6372;SDS011;3219;51.362;7.074;2022-12-07T08:52:49;15.30;;;11.80;;
6372;SDS011;3219;51.362;7.074;2022-12-07T08:55:17;18.87;;;12.93;;
6372;SDS011;3219;51.362;7.074;2022-12-07T08:57:46;17.30;;;14.05;;
6372;SDS011;3219;51.362;7.074;2022-12-07T09:00:14;20.00;;;14.65;;
6372;SDS011;3219;51.362;7.074;2022-12-07T09:02:43;19.15;;;15.20;;
6372;SDS011;3219;51.362;7.074;2022-12-07T09:05:11;21.10;;;15.68;;
6372;SDS011;3219;51.362;7.074;2022-12-07T09:07:40;19.80;;;15.90;;
6372;SDS011;3219;51.362;7.074;2022-12-07T09:10:10;26.70;;;18.63;;
6372;SDS011;3219;51.362;7.074;2022-12-07T09:12:38;23.58;;;18.25;;
6372;SDS011;3219;51.362;7.074;2022-12-07T09:15:06;28.13;;;21.65;;
6372;SDS011;3219;51.362;7.074;2022-12-07T09:17:35;31.27;;;21.20;;
6372;SDS011;3219;51.362;7.074;2022-12-07T09:20:03;30.17;;;22.35;;
6372;SDS011;3219;51.362;7.074;2022-12-07T09:22:31;28.38;;;20.65;;
6372;SDS011;3219;51.362;7.074;2022-12-07T09:25:00;33.05;;;22.10;;
6372;SDS011;3219;51.362;7.074;2022-12-07T09:27:30;30.40;;;23.63;;
6372;SDS011;3219;51.362;7.074;2022-12-07T09:29:58;27.50;;;22.52;;
6372;SDS011;3219;51.362;7.074;2022-12-07T09:32:26;29.27;;;21.58;;
6372;SDS011;3219;51.362;7.074;2022-12-07T09:34:53;29.63;;;21.58;;
6372;SDS011;3219;51.362;7.074;2022-12-07T09:37:21;23.83;;;21.25;;
6372;SDS011;3219;51.362;7.074;2022-12-07T09:39:49;25.75;;;21.67;;
6372;SDS011;3219;51.362;7.074;2022-12-07T09:42:23;28.77;;;20.30;;
6372;SDS011;3219;51.362;7.074;2022-12-07T09:44:55;30.60;;;21.48;;
6372;SDS011;3219;51.362;7.074;2022-12-07T09:47:23;22.48;;;18.88;;
6372;SDS011;3219;51.362;7.074;2022-12-07T09:49:51;19.33;;;17.20;;
6372;SDS011;3219;51.362;7.074;2022-12-07T09:52:21;24.20;;;18.00;;
6372;SDS011;3219;51.362;7.074;2022-12-07T09:54:52;21.27;;;16.20;;
6372;SDS011;3219;51.362;7.074;2022-12-07T09:57:22;18.15;;;14.55;;
6372;SDS011;3219;51.362;7.074;2022-12-07T09:59:54;23.27;;;14.85;;
6372;SDS011;3219;51.362;7.074;2022-12-07T10:02:24;22.65;;;14.32;;
6372;SDS011;3219;51.362;7.074;2022-12-07T10:04:52;26.77;;;13.60;;
6372;SDS011;3219;51.362;7.074;2022-12-07T10:07:20;25.02;;;14.35;;
6372;SDS011;3219;51.362;7.074;2022-12-07T10:09:48;19.88;;;13.70;;
6372;SDS011;3219;51.362;7.074;2022-12-07T10:12:16;18.23;;;11.52;;
6372;SDS011;3219;51.362;7.074;2022-12-07T10:14:52;18.40;;;11.60;;
6372;SDS011;3219;51.362;7.074;2022-12-07T10:17:33;15.45;;;10.25;;
6372;SDS011;3219;51.362;7.074;2022-12-07T10:20:08;17.52;;;10.98;;
6372;SDS011;3219;51.362;7.074;2022-12-07T10:22:52;14.80;;;11.63;;
6372;SDS011;3219;51.362;7.074;2022-12-07T10:25:22;21.10;;;11.60;;
6372;SDS011;3219;51.362;7.074;2022-12-07T10:27:56;15.85;;;10.20;;
6372;SDS011;3219;51.362;7.074;2022-12-07T10:30:24;14.30;;;10.40;;
6372;SDS011;3219;51.362;7.074;2022-12-07T10:32:54;14.15;;;9.70;;
6372;SDS011;3219;51.362;7.074;2022-12-07T10:35:23;17.95;;;9.32;;
6372;SDS011;3219;51.362;7.074;2022-12-07T10:37:52;24.98;;;9.95;;
6372;SDS011;3219;51.362;7.074;2022-12-07T10:40:24;13.25;;;8.75;;
6372;SDS011;3219;51.362;7.074;2022-12-07T10:43:00;16.20;;;9.40;;
6372;SDS011;3219;51.362;7.074;2022-12-07T10:45:28;12.02;;;8.60;;
6372;SDS011;3219;51.362;7.074;2022-12-07T10:47:58;21.63;;;9.32;;
6372;SDS011;3219;51.362;7.074;2022-12-07T10:50:32;18.15;;;9.35;;
6372;SDS011;3219;51.362;7.074;2022-12-07T10:53:18;18.98;;;9.27;;
6372;SDS011;3219;51.362;7.074;2022-12-07T10:56:01;13.88;;;9.05;;
6372;SDS011;3219;51.362;7.074;2022-12-07T10:58:41;18.67;;;9.50;;
6372;SDS011;3219;51.362;7.074;2022-12-07T11:01:13;12.85;;;9.45;;
6372;SDS011;3219;51.362;7.074;2022-12-07T11:03:47;15.75;;;9.32;;
6372;SDS011;3219;51.362;7.074;2022-12-07T11:06:21;16.50;;;10.13;;
6372;SDS011;3219;51.362;7.074;2022-12-07T11:08:57;15.40;;;10.70;;
6372;SDS011;3219;51.362;7.074;2022-12-07T11:11:30;17.55;;;11.55;;
6372;SDS011;3219;51.362;7.074;2022-12-07T11:14:03;22.15;;;11.48;;
6372;SDS011;3219;51.362;7.074;2022-12-07T11:16:34;18.48;;;11.05;;
6372;SDS011;3219;51.362;7.074;2022-12-07T11:19:14;17.55;;;10.50;;
6372;SDS011;3219;51.362;7.074;2022-12-07T11:21:47;17.90;;;10.52;;
6372;SDS011;3219;51.362;7.074;2022-12-07T11:24:17;18.70;;;11.10;;
6372;SDS011;3219;51.362;7.074;2022-12-07T11:26:49;16.50;;;9.98;;
6372;SDS011;3219;51.362;7.074;2022-12-07T11:29:22;16.85;;;11.10;;
6372;SDS011;3219;51.362;7.074;2022-12-07T11:31:58;31.73;;;11.15;;
6372;SDS011;3219;51.362;7.074;2022-12-07T11:34:35;16.30;;;10.50;;
6372;SDS011;3219;51.362;7.074;2022-12-07T11:37:05;18.83;;;11.02;;
6372;SDS011;3219;51.362;7.074;2022-12-07T11:39:39;19.08;;;11.48;;
6372;SDS011;3219;51.362;7.074;2022-12-07T11:42:09;16.88;;;10.68;;
6372;SDS011;3219;51.362;7.074;2022-12-07T11:44:43;15.40;;;10.65;;
6372;SDS011;3219;51.362;7.074;2022-12-07T11:47:15;13.65;;;9.82;;
6372;SDS011;3219;51.362;7.074;2022-12-07T11:49:47;31.70;;;11.47;;
6372;SDS011;3219;51.362;7.074;2022-12-07T11:52:20;16.25;;;9.98;;
6372;SDS011;3219;51.362;7.074;2022-12-07T11:54:50;15.15;;;9.30;;
6372;SDS011;3219;51.362;7.074;2022-12-07T11:57:20;19.35;;;10.75;;
6372;SDS011;3219;51.362;7.074;2022-12-07T11:59:50;13.20;;;9.50;;
6372;SDS011;3219;51.362;7.074;2022-12-07T12:02:20;15.20;;;9.75;;
6372;SDS011;3219;51.362;7.074;2022-12-07T12:04:53;22.70;;;12.23;;
6372;SDS011;3219;51.362;7.074;2022-12-07T12:07:22;26.00;;;10.07;;
6372;SDS011;3219;51.362;7.074;2022-12-07T12:09:51;11.27;;;8.02;;
6372;SDS011;3219;51.362;7.074;2022-12-07T12:12:23;16.13;;;9.50;;
6372;SDS011;3219;51.362;7.074;2022-12-07T12:14:57;16.58;;;9.15;;
6372;SDS011;3219;51.362;7.074;2022-12-07T12:17:34;15.65;;;8.27;;
6372;SDS011;3219;51.362;7.074;2022-12-07T12:20:13;17.50;;;8.05;;
6372;SDS011;3219;51.362;7.074;2022-12-07T12:22:44;13.50;;;7.07;;
6372;SDS011;3219;51.362;7.074;2022-12-07T12:25:16;14.57;;;6.97;;
6372;SDS011;3219;51.362;7.074;2022-12-07T12:27:47;11.38;;;5.55;;
6372;SDS011;3219;51.362;7.074;2022-12-07T12:30:24;11.82;;;5.90;;
6372;SDS011;3219;51.362;7.074;2022-12-07T12:32:53;10.82;;;5.90;;
6372;SDS011;3219;51.362;7.074;2022-12-07T12:35:31;13.52;;;5.85;;
6372;SDS011;3219;51.362;7.074;2022-12-07T12:40:48;12.57;;;5.10;;
6372;SDS011;3219;51.362;7.074;2022-12-07T12:48:46;11.18;;;4.60;;
6372;SDS011;3219;51.362;7.074;2022-12-07T12:54:11;14.50;;;5.30;;
6372;SDS011;3219;51.362;7.074;2022-12-07T12:56:40;10.57;;;4.55;;
6372;SDS011;3219;51.362;7.074;2022-12-07T12:59:22;13.85;;;5.18;;
6372;SDS011;3219;51.362;7.074;2022-12-07T13:01:51;8.75;;;4.80;;
6372;SDS011;3219;51.362;7.074;2022-12-07T13:04:25;14.48;;;5.50;;
6372;SDS011;3219;51.362;7.074;2022-12-07T13:06:54;13.70;;;5.47;;
6372;SDS011;3219;51.362;7.074;2022-12-07T13:09:26;14.55;;;6.10;;
6372;SDS011;3219;51.362;7.074;2022-12-07T13:11:56;13.93;;;6.55;;
6372;SDS011;3219;51.362;7.074;2022-12-07T13:20:00;18.88;;;7.10;;
6372;SDS011;3219;51.362;7.074;2022-12-07T13:28:03;14.15;;;6.43;;
6372;SDS011;3219;51.362;7.074;2022-12-07T13:30:40;14.02;;;5.93;;
6372;SDS011;3219;51.362;7.074;2022-12-07T13:33:11;11.15;;;5.25;;
6372;SDS011;3219;51.362;7.074;2022-12-07T13:35:40;12.13;;;5.60;;
6372;SDS011;3219;51.362;7.074;2022-12-07T13:38:16;10.00;;;4.95;;
6372;SDS011;3219;51.362;7.074;2022-12-07T13:40:59;9.40;;;4.70;;
6372;SDS011;3219;51.362;7.074;2022-12-07T13:43:28;9.52;;;3.35;;
6372;SDS011;3219;51.362;7.074;2022-12-07T13:45:56;12.40;;;3.97;;
6372;SDS011;3219;51.362;7.074;2022-12-07T13:48:27;7.40;;;3.70;;
6372;SDS011;3219;51.362;7.074;2022-12-07T13:50:58;17.80;;;3.67;;
6372;SDS011;3219;51.362;7.074;2022-12-07T13:53:27;10.68;;;3.20;;
6372;SDS011;3219;51.362;7.074;2022-12-07T13:55:56;6.38;;;3.00;;
6372;SDS011;3219;51.362;7.074;2022-12-07T13:58:24;8.20;;;2.95;;
6372;SDS011;3219;51.362;7.074;2022-12-07T14:00:54;6.05;;;2.45;;
6372;SDS011;3219;51.362;7.074;2022-12-07T14:03:27;4.95;;;2.50;;
6372;SDS011;3219;51.362;7.074;2022-12-07T14:08:42;5.35;;;2.30;;
6372;SDS011;3219;51.362;7.074;2022-12-07T14:11:13;8.00;;;3.10;;
6372;SDS011;3219;51.362;7.074;2022-12-07T14:13:51;5.72;;;2.80;;
6372;SDS011;3219;51.362;7.074;2022-12-07T14:16:24;7.47;;;2.60;;
6372;SDS011;3219;51.362;7.074;2022-12-07T14:18:54;9.10;;;2.92;;
6372;SDS011;3219;51.362;7.074;2022-12-07T14:21:23;7.40;;;3.22;;
6372;SDS011;3219;51.362;7.074;2022-12-07T14:24:11;6.63;;;3.00;;
6372;SDS011;3219;51.362;7.074;2022-12-07T14:26:40;8.20;;;2.80;;
6372;SDS011;3219;51.362;7.074;2022-12-07T14:29:21;6.18;;;3.05;;
6372;SDS011;3219;51.362;7.074;2022-12-07T14:31:51;6.85;;;3.40;;
6372;SDS011;3219;51.362;7.074;2022-12-07T14:34:20;7.85;;;3.35;;
6372;SDS011;3219;51.362;7.074;2022-12-07T14:36:48;7.50;;;4.28;;
6372;SDS011;3219;51.362;7.074;2022-12-07T14:39:16;8.95;;;4.22;;
6372;SDS011;3219;51.362;7.074;2022-12-07T14:41:44;8.15;;;4.95;;
6372;SDS011;3219;51.362;7.074;2022-12-07T14:44:19;9.70;;;5.30;;
6372;SDS011;3219;51.362;7.074;2022-12-07T14:46:48;9.05;;;5.53;;
6372;SDS011;3219;51.362;7.074;2022-12-07T14:49:18;12.38;;;4.60;;
6372;SDS011;3219;51.362;7.074;2022-12-07T14:51:46;11.27;;;5.25;;
6372;SDS011;3219;51.362;7.074;2022-12-07T14:54:15;14.07;;;5.15;;
6372;SDS011;3219;51.362;7.074;2022-12-07T14:56:44;16.67;;;5.05;;
6372;SDS011;3219;51.362;7.074;2022-12-07T14:59:15;9.65;;;4.47;;
6372;SDS011;3219;51.362;7.074;2022-12-07T15:01:43;12.23;;;6.03;;
6372;SDS011;3219;51.362;7.074;2022-12-07T15:04:12;14.20;;;6.50;;
6372;SDS011;3219;51.362;7.074;2022-12-07T15:06:41;12.60;;;6.15;;
6372;SDS011;3219;51.362;7.074;2022-12-07T15:09:09;15.50;;;5.22;;
6372;SDS011;3219;51.362;7.074;2022-12-07T15:11:38;7.07;;;4.90;;
6372;SDS011;3219;51.362;7.074;2022-12-07T15:14:06;10.82;;;5.20;;
6372;SDS011;3219;51.362;7.074;2022-12-07T15:16:36;13.57;;;4.88;;
6372;SDS011;3219;51.362;7.074;2022-12-07T15:19:06;14.68;;;4.85;;
6372;SDS011;3219;51.362;7.074;2022-12-07T15:21:34;13.15;;;5.03;;
6372;SDS011;3219;51.362;7.074;2022-12-07T15:24:04;11.68;;;4.97;;
6372;SDS011;3219;51.362;7.074;2022-12-07T15:26:32;12.38;;;5.20;;
6372;SDS011;3219;51.362;7.074;2022-12-07T15:29:00;9.20;;;4.93;;
6372;SDS011;3219;51.362;7.074;2022-12-07T15:31:28;12.73;;;4.78;;
6372;SDS011;3219;51.362;7.074;2022-12-07T15:33:56;9.70;;;4.63;;
6372;SDS011;3219;51.362;7.074;2022-12-07T15:36:26;9.00;;;4.18;;
6372;SDS011;3219;51.362;7.074;2022-12-07T15:38:54;8.02;;;4.50;;
6372;SDS011;3219;51.362;7.074;2022-12-07T15:41:24;11.70;;;4.50;;